Bookmark and Share
Track history (hours):
 

Vohburg

Last reported at 2014-Apr-16 04:33 UTC. Time now 2014-Apr-16 05:15 UTC.
Position N 56°04' E 010°34'.

Length 140 m; draft 5.6 m.

Type: Cargo ship. MMSI: 305773000.

NotesDate/timePositionNaut miles runAvg speedWind from/ knotsBaromVisibWave heightAir tempDewpointWater temp
2014-Apr-16 04:33N 56°04' E 010°34'1313.4
2014-Apr-16 03:33N 56°05' E 010°58'1414.1
2014-Apr-16 02:33N 56°07' E 011°23'1414.1
2014-Apr-16 01:34N 56°09' E 011°48'1414.5
2014-Apr-16 00:34N 56°11' E 012°14'1313.1
2014-Apr-15 23:33N 56°06' E 012°35'1313.0
2014-Apr-15 22:33N 55°54' E 012°44'1313.4
2014-Apr-15 21:34N 55°40' E 012°41'1413.7
2014-Apr-15 20:33N 55°27' E 012°42'1211.5
2014-Apr-15 19:33N 55°16' E 012°50'1414.0
2014-Apr-15 18:34N 55°15' E 013°14'1413.9
2014-Apr-15 17:33N 55°14' E 013°39'1414.2
2014-Apr-15 16:33N 55°14' E 014°04'1313.3
2014-Apr-15 15:33N 55°19' E 014°25'1413.9
2014-Apr-15 14:33N 55°28' E 014°44'14 7.1
2014-Apr-15 12:34N 55°36' E 015°05'1513.8
2014-Apr-15 11:30N 55°43' E 015°28'2814.3
2014-Apr-15 09:34N 55°57' E 016°10'31214.1
2014-Apr-14 11:30N 59°36' E 023°07'1314.1
2014-Apr-14 10:34N 59°39' E 023°32'1414.1
2014-Apr-14 09:33N 59°44' E 023°59'1414.0
2014-Apr-14 08:34N 59°48' E 024°25'2713.4
2014-Apr-14 06:33N 60°04' E 025°09'3 0.2
2014-Apr-13 16:34N 60°06' E 025°11'4314.1
2014-Apr-13 13:29N 60°01' E 026°38'4 0.1
2014-Apr-11 17:15N 59°59' E 026°45'5517.5
2014-Apr-11 14:08N 59°47' E 024°59'1017.2
2014-Apr-11 13:33N 59°44' E 024°40'2117.2
2014-Apr-11 12:21N 59°39' E 024°01'1417.3
2014-Apr-11 11:32N 59°34' E 023°34'36017.2
2014-Apr-10 14:33N 55°34' E 015°14'1817.7
2014-Apr-10 13:33N 55°25' E 014°46'1717.1
2014-Apr-10 12:33N 55°13' E 014°25'1717.1
2014-Apr-10 11:33N 55°01' E 014°03'1717.1
2014-Apr-10 10:33N 54°55' E 013°36'1817.5
2014-Apr-10 09:33N 54°48' E 013°07'1717.2
2014-Apr-10 08:33N 54°42' E 012°40'1717.0
2014-Apr-10 07:34N 54°31' E 012°17'1616.0
2014-Apr-10 06:33N 54°25' E 011°52'1817.8
2014-Apr-10 05:33N 54°31' E 011°23'62 9.8
2014-Apr-09 23:14N 54°17' E 009°39'3 4.7
2014-Apr-09 22:32N 54°14' E 009°37'8 7.7
2014-Apr-09 21:33N 54°10' E 009°26'5 5.2
2014-Apr-09 20:33N 54°06' E 009°20'6 6.1
2014-Apr-09 19:33N 54°00' E 009°18'5 4.8
2014-Apr-09 18:33N 53°56' E 009°13'4 3.9
2014-Apr-09 17:33N 53°54' E 009°09'2 1.7
2014-Apr-09 16:33N 53°53' E 009°06'0 0.1
2014-Apr-09 15:33N 53°53' E 009°06'10 9.7
2014-Apr-09 14:34N 53°50' E 008°50'1414.3
2014-Apr-09 13:33N 53°58' E 008°30'1716.6
2014-Apr-09 12:33N 53°59' E 008°02'1817.5
2014-Apr-09 11:33N 53°56' E 007°33'1716.9
2014-Apr-09 10:33N 53°52' E 007°04'3416.8
2014-Apr-09 08:32N 53°43' E 006°09'1716.9
2014-Apr-09 07:33N 53°37' E 005°43'1716.7
2014-Apr-09 06:33N 53°32' E 005°16'1716.6
2014-Apr-09 05:33N 53°25' E 004°51'2116.0
2014-Apr-09 04:16N 53°08' E 004°31'1216.5
2014-Apr-09 03:33N 52°58' E 004°21'1716.5
2014-Apr-09 02:33N 52°44' E 004°07'1716.6
2014-Apr-09 01:33N 52°29' E 003°54'1616.4
2014-Apr-09 00:33N 52°13' E 003°53'1312.6
2014-Apr-08 23:34N 52°01' E 003°59'1413.9
2014-Apr-08 22:32N 51°54' E 004°19'4 0.1
2014-Apr-07 19:05N 51°53' E 004°25'14 8.9
2014-Apr-07 17:33N 51°59' E 004°05'1414.1
2014-Apr-07 16:33N 52°02' E 003°43'6014.9
2014-Apr-07 12:30N 52°38' E 002°24'1616.5
2014-Apr-07 11:33N 52°50' E 002°06'1716.6
2014-Apr-07 10:34N 52°60' E 001°44'1616.2
2014-Apr-07 09:34N 53°10' E 001°23'5316.0
2014-Apr-07 06:14N 53°53' E 000°30'1116.3
2014-Apr-07 05:33N 54°01' E 000°17'1616.0
2014-Apr-07 04:33N 54°12' W 000°01'1616.0
2014-Apr-07 03:33N 54°24' W 000°19'1615.7
2014-Apr-07 02:33N 54°35' W 000°40'1615.7
2014-Apr-07 01:33N 54°40' W 001°05'5 4.6
2014-Apr-07 00:33N 54°36' W 001°09'0 0.0
2014-Apr-06 23:33N 54°36' W 001°09'0 0.0
2014-Apr-06 22:33N 54°36' W 001°09'0 0.0
2014-Apr-06 21:33N 54°36' W 001°09'0 0.3
2014-Apr-06 20:33N 54°36' W 001°09'8 8.3
2014-Apr-06 19:33N 54°42' W 000°59'1212.2
2014-Apr-06 18:33N 54°47' W 000°40'1212.3
2014-Apr-06 17:33N 54°53' W 000°21'16613.4
2014-Apr-06 05:12N 56°06' E 004°01'  

Dump ship's entire track history

sailing weather and tide predictions

Vohburg — V2OW7 — position and weather